createdAt,value
2017-04-27T00:00:01.770Z,8.56
2017-04-27T00:00:27.886Z,8.48
2017-04-27T00:00:54.088Z,8.45
2017-04-27T00:01:20.215Z,8.46
2017-04-27T00:01:46.327Z,8.53
2017-04-27T00:02:12.426Z,8.51
2017-04-27T00:02:38.532Z,8.42
2017-04-27T00:03:04.618Z,8.49
2017-04-27T00:03:30.715Z,8.51
2017-04-27T00:03:56.820Z,8.49
2017-04-27T00:04:22.907Z,8.42
2017-04-27T00:04:49.001Z,8.48
2017-04-27T00:05:15.103Z,8.48
2017-04-27T00:05:41.196Z,8.45
2017-04-27T00:06:07.298Z,8.38
2017-04-27T00:06:33.386Z,8.49
2017-04-27T00:06:59.483Z,8.55
2017-04-27T00:07:25.589Z,8.49
2017-04-27T00:07:51.701Z,8.42
2017-04-27T00:08:17.795Z,8.55
2017-04-27T00:08:43.899Z,8.53
2017-04-27T00:09:10.013Z,8.53
2017-04-27T00:09:36.127Z,8.56
2017-04-27T00:10:02.235Z,8.42
2017-04-27T00:10:28.332Z,8.45
2017-04-27T00:10:54.443Z,8.51
2017-04-27T00:11:20.598Z,8.56
2017-04-27T00:11:46.716Z,8.48
2017-04-27T00:12:12.817Z,8.44
2017-04-27T00:12:38.909Z,8.53
2017-04-27T00:13:04.998Z,8.45
2017-04-27T00:13:31.132Z,8.48
2017-04-27T00:13:57.225Z,8.55
2017-04-27T00:14:23.313Z,8.53
2017-04-27T00:14:49.443Z,8.45
2017-04-27T00:15:15.539Z,8.53
2017-04-27T00:15:41.625Z,8.49
2017-04-27T00:16:07.725Z,8.44
2017-04-27T00:16:33.830Z,8.48
2017-04-27T00:16:59.913Z,8.48
2017-04-27T00:17:26.010Z,8.51
2017-04-27T00:17:52.114Z,8.51
2017-04-27T00:18:18.205Z,8.49
2017-04-27T00:18:44.298Z,8.48
2017-04-27T00:19:10.428Z,8.44
2017-04-27T00:19:36.544Z,8.42
2017-04-27T00:20:02.654Z,8.49
2017-04-27T00:20:28.761Z,8.45
2017-04-27T00:20:55.007Z,8.46
2017-04-27T00:21:21.096Z,8.52
2017-04-27T00:21:47.199Z,8.38
2017-04-27T00:22:13.295Z,8.46
2017-04-27T00:22:39.419Z,8.46
2017-04-27T00:23:05.532Z,8.46
2017-04-27T00:23:31.618Z,8.53
2017-04-27T00:23:57.725Z,8.42
2017-04-27T00:24:23.848Z,8.53
2017-04-27T00:24:49.958Z,8.44
2017-04-27T00:25:16.063Z,8.46
2017-04-27T00:25:42.161Z,8.45
2017-04-27T00:26:08.249Z,8.44
2017-04-27T00:26:34.351Z,8.48
2017-04-27T00:27:00.455Z,8.42
2017-04-27T00:27:26.564Z,8.37
2017-04-27T00:27:52.683Z,8.41
2017-04-27T00:28:18.772Z,8.44
2017-04-27T00:28:44.876Z,8.45
2017-04-27T00:29:10.971Z,8.42
2017-04-27T00:29:37.059Z,8.36
2017-04-27T00:30:03.162Z,8.36
2017-04-27T00:30:29.263Z,8.36
2017-04-27T00:30:55.397Z,8.31
2017-04-27T00:31:21.520Z,8.28
2017-04-27T00:31:47.623Z,8.31
2017-04-27T00:32:13.712Z,8.33
2017-04-27T00:32:39.805Z,8.37
2017-04-27T00:33:05.938Z,8.33
2017-04-27T00:33:32.059Z,8.33
2017-04-27T00:33:58.165Z,8.31
2017-04-27T00:34:24.296Z,8.34
2017-04-27T00:34:50.473Z,8.37
2017-04-27T00:35:16.574Z,8.34
2017-04-27T00:35:42.664Z,8.34
2017-04-27T00:36:08.759Z,8.3
2017-04-27T00:36:34.862Z,8.31
2017-04-27T00:37:00.978Z,8.33
2017-04-27T00:37:27.090Z,8.27
2017-04-27T00:37:53.296Z,8.31
2017-04-27T00:38:19.390Z,8.27
2017-04-27T00:38:45.525Z,8.28
2017-04-27T00:39:11.631Z,8.36
2017-04-27T00:39:37.752Z,8.28
2017-04-27T00:40:03.863Z,8.37
2017-04-27T00:40:29.964Z,8.36
2017-04-27T00:40:56.094Z,8.3
2017-04-27T00:41:22.177Z,8.3
2017-04-27T00:41:48.274Z,8.33
2017-04-27T00:42:14.378Z,8.37
2017-04-27T00:42:40.467Z,8.28
2017-04-27T00:43:06.611Z,8.31
2017-04-27T00:43:32.716Z,8.27
2017-04-27T00:43:58.807Z,8.31
2017-04-27T00:44:24.895Z,8.3
2017-04-27T00:44:50.995Z,8.3
2017-04-27T00:45:17.141Z,8.3
2017-04-27T00:45:43.273Z,8.33
2017-04-27T00:46:09.361Z,8.28
2017-04-27T00:46:35.482Z,8.33
2017-04-27T00:47:01.641Z,8.28
2017-04-27T00:47:27.758Z,8.37
2017-04-27T00:47:53.870Z,8.37
2017-04-27T00:48:20.077Z,8.38
2017-04-27T00:48:46.173Z,8.36
2017-04-27T00:49:12.285Z,8.31
2017-04-27T00:49:38.417Z,8.3
2017-04-27T00:50:04.516Z,8.33
2017-04-27T00:50:30.612Z,8.3
2017-04-27T00:50:56.701Z,8.3
2017-04-27T00:51:22.787Z,8.33
2017-04-27T00:51:48.896Z,8.33
2017-04-27T00:52:14.990Z,8.34
2017-04-27T00:52:41.078Z,8.34
2017-04-27T00:53:07.234Z,8.38
2017-04-27T00:53:33.387Z,8.28
2017-04-27T00:53:59.473Z,8.34
2017-04-27T00:54:25.574Z,8.38
2017-04-27T00:54:51.679Z,8.37
2017-04-27T00:55:17.762Z,8.33
2017-04-27T00:55:43.884Z,8.36
2017-04-27T00:56:09.974Z,8.38
2017-04-27T00:56:36.105Z,8.36
2017-04-27T00:57:02.286Z,8.37
2017-04-27T00:57:28.347Z,8.36
2017-04-27T00:57:54.505Z,8.33
2017-04-27T00:58:20.664Z,8.37
2017-04-27T00:58:46.835Z,8.33
2017-04-27T00:59:12.922Z,8.37
2017-04-27T00:59:39.107Z,8.38
2017-04-27T01:00:05.244Z,8.41
2017-04-27T01:00:31.338Z,8.33
2017-04-27T01:00:57.442Z,8.34
2017-04-27T01:01:23.532Z,8.36
2017-04-27T01:01:49.720Z,8.37
2017-04-27T01:02:15.907Z,8.37
2017-04-27T01:02:42.053Z,8.33
2017-04-27T01:03:08.217Z,8.36
2017-04-27T01:03:34.374Z,8.27
2017-04-27T01:04:00.498Z,8.28
2017-04-27T01:04:26.609Z,8.36
2017-04-27T01:04:52.709Z,8.41
2017-04-27T01:05:19.018Z,8.38
2017-04-27T01:05:45.130Z,8.44
2017-04-27T01:06:11.327Z,8.41
2017-04-27T01:06:37.459Z,8.41
2017-04-27T01:07:03.627Z,8.36
2017-04-27T01:07:29.729Z,8.45
2017-04-27T01:07:55.842Z,8.41
2017-04-27T01:08:21.967Z,8.33
2017-04-27T01:08:48.157Z,8.34
2017-04-27T01:09:14.317Z,8.36
2017-04-27T01:09:40.464Z,8.31
2017-04-27T01:10:06.594Z,8.33
2017-04-27T01:10:32.683Z,8.28
2017-04-27T01:10:58.778Z,8.27
2017-04-27T01:11:24.910Z,8.3
2017-04-27T01:11:50.997Z,8.38
2017-04-27T01:12:17.110Z,8.31
2017-04-27T01:12:43.264Z,8.38
2017-04-27T01:13:09.439Z,8.38
2017-04-27T01:13:35.540Z,8.38
2017-04-27T01:14:01.728Z,8.37
2017-04-27T01:14:27.848Z,8.36
2017-04-27T01:14:53.977Z,8.37
2017-04-27T01:15:20.097Z,8.36
2017-04-27T01:15:46.185Z,8.37
2017-04-27T01:16:12.372Z,8.37
2017-04-27T01:16:38.492Z,8.36
2017-04-27T01:17:04.578Z,8.36
2017-04-27T01:17:30.682Z,8.37
2017-04-27T01:17:56.806Z,8.42
2017-04-27T01:18:22.904Z,8.41
2017-04-27T01:18:49.020Z,8.37
2017-04-27T01:19:15.134Z,8.44
2017-04-27T01:19:41.263Z,8.36
2017-04-27T01:20:07.408Z,8.41
2017-04-27T01:20:33.497Z,8.37
2017-04-27T01:20:59.629Z,8.48
2017-04-27T01:21:25.777Z,8.48
2017-04-27T01:21:51.889Z,8.46
2017-04-27T01:22:18.038Z,8.42
2017-04-27T01:22:44.142Z,8.53
2017-04-27T01:23:10.229Z,8.37
2017-04-27T01:23:36.352Z,8.41
2017-04-27T01:24:02.491Z,8.36
2017-04-27T01:24:28.594Z,8.38
2017-04-27T01:24:54.716Z,8.41
2017-04-27T01:25:20.855Z,8.49
2017-04-27T01:25:46.982Z,8.51
2017-04-27T01:26:13.087Z,8.55
2017-04-27T01:26:39.299Z,8.51
2017-04-27T01:27:05.420Z,8.52
2017-04-27T01:27:31.578Z,8.46
2017-04-27T01:27:57.718Z,8.38
2017-04-27T01:28:23.839Z,8.45
2017-04-27T01:28:49.997Z,8.46
2017-04-27T01:29:16.116Z,8.48
2017-04-27T01:29:42.325Z,8.49
2017-04-27T01:30:08.457Z,8.48
2017-04-27T01:30:34.555Z,8.49
2017-04-27T01:31:00.658Z,8.44
2017-04-27T01:31:26.746Z,8.61
2017-04-27T01:31:52.891Z,8.53
2017-04-27T01:32:18.995Z,8.53
2017-04-27T01:32:45.164Z,8.58
2017-04-27T01:33:11.251Z,8.61
2017-04-27T01:33:37.411Z,8.48
2017-04-27T01:34:03.557Z,8.48
2017-04-27T01:34:29.695Z,8.48
2017-04-27T01:34:55.829Z,8.51
2017-04-27T01:35:21.947Z,8.51
2017-04-27T01:35:48.051Z,8.48
2017-04-27T01:36:14.166Z,8.51
2017-04-27T01:36:40.255Z,8.55
2017-04-27T01:37:06.363Z,8.51
2017-04-27T01:37:32.455Z,8.45
2017-04-27T01:37:58.592Z,8.44
2017-04-27T01:38:24.698Z,8.48
2017-04-27T01:38:50.823Z,8.45
2017-04-27T01:39:16.960Z,8.48
2017-04-27T01:39:43.089Z,8.46
2017-04-27T01:40:09.274Z,8.51
2017-04-27T01:40:35.366Z,8.41
2017-04-27T01:41:01.488Z,8.44
2017-04-27T01:41:27.576Z,8.44
2017-04-27T01:41:53.681Z,8.46
2017-04-27T01:42:19.805Z,8.49
2017-04-27T01:42:45.942Z,8.48
2017-04-27T01:43:12.095Z,8.46
2017-04-27T01:43:38.227Z,8.51
2017-04-27T01:44:04.364Z,8.42
2017-04-27T01:44:30.508Z,8.48
2017-04-27T01:44:56.613Z,8.42
2017-04-27T01:45:22.727Z,8.42
2017-04-27T01:45:48.820Z,8.38
2017-04-27T01:46:14.923Z,8.38
2017-04-27T01:46:41.015Z,8.36
2017-04-27T01:47:07.102Z,8.36
2017-04-27T01:47:33.206Z,8.38
2017-04-27T01:47:59.352Z,8.34
2017-04-27T01:48:25.465Z,8.34
2017-04-27T01:48:51.598Z,8.38
2017-04-27T01:49:17.724Z,8.44
2017-04-27T01:49:43.813Z,8.45
2017-04-27T01:50:09.935Z,8.45
2017-04-27T01:50:36.064Z,8.44
2017-04-27T01:51:02.199Z,8.42
2017-04-27T01:51:28.296Z,8.48
2017-04-27T01:51:54.387Z,8.45
2017-04-27T01:52:20.516Z,8.41
2017-04-27T01:52:46.614Z,8.44
2017-04-27T01:53:12.700Z,8.45
2017-04-27T01:53:38.827Z,8.45
2017-04-27T01:54:04.957Z,8.45
2017-04-27T01:54:31.095Z,8.46
2017-04-27T01:54:57.320Z,8.42
2017-04-27T01:55:23.422Z,8.45
2017-04-27T01:55:49.509Z,8.45
2017-04-27T01:56:15.751Z,8.42
2017-04-27T01:56:41.854Z,8.41
2017-04-27T01:57:08.002Z,8.49
2017-04-27T01:57:34.105Z,8.42
2017-04-27T01:58:00.239Z,8.41
2017-04-27T01:58:26.389Z,8.45
2017-04-27T01:58:52.520Z,8.48
2017-04-27T01:59:18.605Z,8.34
2017-04-27T01:59:44.697Z,8.38
2017-04-27T02:00:10.828Z,8.44
2017-04-27T02:00:36.941Z,8.41
2017-04-27T02:01:03.029Z,8.42
2017-04-27T02:01:29.136Z,8.45
2017-04-27T02:01:55.285Z,8.41
2017-04-27T02:02:21.420Z,8.37
2017-04-27T02:02:47.608Z,8.38
2017-04-27T02:03:13.725Z,8.33
2017-04-27T02:03:39.857Z,8.3
2017-04-27T02:04:06.027Z,8.33
2017-04-27T02:04:32.191Z,8.3
2017-04-27T02:04:58.351Z,8.33
2017-04-27T02:05:24.446Z,8.31
2017-04-27T02:05:50.557Z,8.31
2017-04-27T02:06:16.712Z,8.31
2017-04-27T02:06:42.809Z,8.28
2017-04-27T02:07:08.896Z,8.33
2017-04-27T02:07:35.026Z,8.31
2017-04-27T02:08:01.159Z,8.33
2017-04-27T02:08:27.299Z,8.27
2017-04-27T02:08:53.501Z,8.28
2017-04-27T02:09:19.636Z,8.33
2017-04-27T02:09:45.770Z,8.3
2017-04-27T02:10:11.868Z,8.28
2017-04-27T02:10:37.981Z,8.3
2017-04-27T02:11:04.132Z,8.37
2017-04-27T02:11:30.289Z,8.33
2017-04-27T02:11:56.397Z,8.33
2017-04-27T02:12:22.519Z,8.3
2017-04-27T02:12:48.650Z,8.36
2017-04-27T02:13:14.791Z,8.34
2017-04-27T02:13:40.960Z,8.33
2017-04-27T02:14:07.134Z,8.28
2017-04-27T02:14:33.270Z,8.27
2017-04-27T02:14:59.368Z,8.3
2017-04-27T02:15:25.479Z,8.31
2017-04-27T02:15:51.625Z,8.33
2017-04-27T02:16:17.728Z,8.3
2017-04-27T02:16:43.814Z,8.31
2017-04-27T02:17:09.908Z,8.31
2017-04-27T02:17:36.041Z,8.31
2017-04-27T02:18:02.131Z,8.28
2017-04-27T02:18:28.317Z,8.36
2017-04-27T02:18:54.447Z,8.33
2017-04-27T02:19:20.593Z,8.38
2017-04-27T02:19:46.695Z,8.37
2017-04-27T02:20:12.809Z,8.34
2017-04-27T02:20:38.905Z,8.36
2017-04-27T02:21:05.006Z,8.34
2017-04-27T02:21:31.096Z,8.31
2017-04-27T02:21:57.210Z,8.3
2017-04-27T02:22:23.313Z,8.28
2017-04-27T02:22:49.408Z,8.28
2017-04-27T02:23:15.496Z,8.33
2017-04-27T02:23:41.651Z,8.34
2017-04-27T02:24:07.775Z,8.3
2017-04-27T02:24:33.912Z,8.3
2017-04-27T02:25:00.044Z,8.27
2017-04-27T02:25:26.158Z,8.31
2017-04-27T02:25:52.264Z,8.33
2017-04-27T02:26:18.358Z,8.33
2017-04-27T02:26:44.468Z,8.31
2017-04-27T02:27:10.571Z,8.38
2017-04-27T02:27:36.668Z,8.37
2017-04-27T02:28:02.802Z,8.31
2017-04-27T02:28:28.956Z,8.31
2017-04-27T02:28:55.087Z,8.3
2017-04-27T02:29:21.224Z,8.28
2017-04-27T02:29:47.373Z,8.26
2017-04-27T02:30:13.530Z,8.24
2017-04-27T02:30:39.645Z,8.33
2017-04-27T02:31:05.738Z,8.27
2017-04-27T02:31:31.841Z,8.15
2017-04-27T02:31:57.931Z,8.18
2017-04-27T02:32:24.043Z,8.23
2017-04-27T02:32:50.150Z,8.19
2017-04-27T02:33:16.268Z,8.18
2017-04-27T02:33:42.380Z,8.18
2017-04-27T02:34:08.510Z,8.19
2017-04-27T02:34:34.611Z,8.2
2017-04-27T02:35:00.724Z,8.16
2017-04-27T02:35:26.849Z,8.09
2017-04-27T02:35:52.951Z,8.15
2017-04-27T02:36:19.067Z,8.16
2017-04-27T02:36:45.158Z,8.13
2017-04-27T02:37:11.244Z,8.16
2017-04-27T02:37:37.376Z,8.15
2017-04-27T02:38:03.473Z,8.15
2017-04-27T02:38:29.587Z,8.2
2017-04-27T02:38:55.766Z,8.09
2017-04-27T02:39:21.869Z,8.15
2017-04-27T02:39:48.030Z,8.16
2017-04-27T02:40:14.176Z,8.15
2017-04-27T02:40:40.279Z,8.15
2017-04-27T02:41:06.422Z,8.19
2017-04-27T02:41:32.514Z,8.19
2017-04-27T02:41:58.608Z,8.23
2017-04-27T02:42:24.762Z,8.16
2017-04-27T02:42:50.892Z,8.16
2017-04-27T02:43:16.976Z,8.19
2017-04-27T02:43:43.122Z,8.23
2017-04-27T02:44:09.308Z,8.19
2017-04-27T02:44:35.447Z,8.13
2017-04-27T02:45:01.540Z,8.2
2017-04-27T02:45:27.671Z,8.12
2017-04-27T02:45:53.763Z,8.15
2017-04-27T02:46:19.850Z,8.15
2017-04-27T02:46:45.954Z,8.03
2017-04-27T02:47:12.073Z,8.01
2017-04-27T02:47:38.174Z,7.95
2017-04-27T02:48:04.289Z,7.97
2017-04-27T02:48:30.433Z,7.95
2017-04-27T02:48:56.568Z,7.97
2017-04-27T02:49:22.683Z,8
2017-04-27T02:49:48.795Z,7.91
2017-04-27T02:50:14.926Z,7.98
2017-04-27T02:50:41.021Z,7.83
2017-04-27T02:51:07.134Z,7.95
2017-04-27T02:51:33.290Z,7.82
2017-04-27T02:51:59.387Z,7.85
2017-04-27T02:52:25.499Z,7.87
2017-04-27T02:52:51.630Z,7.77
2017-04-27T02:53:17.744Z,7.88
2017-04-27T02:53:43.906Z,7.94
2017-04-27T02:54:10.079Z,7.94
2017-04-27T02:54:36.167Z,7.82
2017-04-27T02:55:02.351Z,7.91
2017-04-27T02:55:28.447Z,7.91
2017-04-27T02:55:54.559Z,7.77
2017-04-27T02:56:20.684Z,7.88
2017-04-27T02:56:46.815Z,7.97
2017-04-27T02:57:12.924Z,7.95
2017-04-27T02:57:39.051Z,7.97
2017-04-27T02:58:05.209Z,8
2017-04-27T02:58:31.326Z,7.95
2017-04-27T02:58:57.504Z,7.94
2017-04-27T02:59:23.639Z,7.9
2017-04-27T02:59:49.768Z,7.93
2017-04-27T03:00:15.900Z,7.77
2017-04-27T03:00:41.983Z,7.9
2017-04-27T03:01:08.081Z,7.83
2017-04-27T03:01:34.195Z,7.97
2017-04-27T03:02:00.322Z,7.95
2017-04-27T03:02:26.418Z,7.77
2017-04-27T03:02:52.608Z,7.91
2017-04-27T03:03:18.755Z,7.91
2017-04-27T03:03:44.916Z,7.83
2017-04-27T03:04:11.040Z,7.95
2017-04-27T03:04:37.136Z,7.9
2017-04-27T03:05:03.266Z,7.93
2017-04-27T03:05:29.355Z,8.01
2017-04-27T03:05:55.447Z,7.95
2017-04-27T03:06:21.551Z,7.97
2017-04-27T03:06:47.642Z,8
2017-04-27T03:07:13.779Z,7.94
2017-04-27T03:07:39.884Z,7.83
2017-04-27T03:08:06.007Z,7.83
2017-04-27T03:08:32.119Z,7.91
2017-04-27T03:08:58.246Z,7.9
2017-04-27T03:09:24.396Z,7.98
2017-04-27T03:09:50.494Z,7.91
2017-04-27T03:10:16.586Z,7.98
2017-04-27T03:10:42.724Z,7.88
2017-04-27T03:11:08.832Z,7.94
2017-04-27T03:11:34.953Z,7.93
2017-04-27T03:12:01.040Z,7.93
2017-04-27T03:12:27.169Z,7.94
2017-04-27T03:12:53.348Z,7.9
2017-04-27T03:13:19.487Z,7.94
2017-04-27T03:13:45.615Z,7.97
2017-04-27T03:14:11.750Z,7.95
2017-04-27T03:14:37.879Z,7.93
2017-04-27T03:15:04.027Z,7.91
2017-04-27T03:15:30.129Z,7.9
2017-04-27T03:15:56.242Z,7.97
2017-04-27T03:16:22.385Z,7.91
2017-04-27T03:16:48.515Z,7.95
2017-04-27T03:17:14.606Z,7.94
2017-04-27T03:17:40.693Z,7.77
2017-04-27T03:18:06.879Z,7.87
2017-04-27T03:18:33.023Z,7.85
2017-04-27T03:18:59.161Z,7.77
2017-04-27T03:19:25.341Z,7.72
2017-04-27T03:19:51.436Z,7.87
2017-04-27T03:20:17.524Z,7.85
2017-04-27T03:20:43.624Z,7.9
2017-04-27T03:21:09.712Z,7.79
2017-04-27T03:21:35.818Z,7.77
2017-04-27T03:22:01.934Z,7.69
2017-04-27T03:22:28.043Z,7.7
2017-04-27T03:22:54.175Z,7.72
2017-04-27T03:23:20.273Z,7.73
2017-04-27T03:23:46.386Z,7.72
2017-04-27T03:24:12.536Z,7.7
2017-04-27T03:24:38.665Z,7.76
2017-04-27T03:25:04.748Z,7.72
2017-04-27T03:25:30.844Z,7.76
2017-04-27T03:25:56.973Z,7.8
2017-04-27T03:26:23.059Z,7.76
2017-04-27T03:26:49.186Z,7.7
2017-04-27T03:27:15.273Z,7.77
2017-04-27T03:27:41.457Z,7.73
2017-04-27T03:28:07.614Z,7.83
2017-04-27T03:28:33.725Z,7.75
2017-04-27T03:28:59.868Z,7.69
2017-04-27T03:29:25.999Z,7.82
2017-04-27T03:29:52.110Z,7.82
2017-04-27T03:30:18.228Z,7.73
2017-04-27T03:30:44.362Z,7.69
2017-04-27T03:31:10.478Z,7.7
2017-04-27T03:31:36.566Z,7.73
2017-04-27T03:32:02.721Z,7.75
2017-04-27T03:32:28.819Z,7.7
2017-04-27T03:32:55.007Z,7.67
2017-04-27T03:33:21.094Z,7.66
2017-04-27T03:33:47.263Z,7.67
2017-04-27T03:34:13.419Z,7.69
2017-04-27T03:34:39.538Z,7.72
2017-04-27T03:35:05.675Z,7.72
2017-04-27T03:35:31.783Z,7.7
2017-04-27T03:35:57.877Z,7.67
2017-04-27T03:36:23.964Z,7.67
2017-04-27T03:36:50.066Z,7.66
2017-04-27T03:37:16.163Z,7.73
2017-04-27T03:37:42.313Z,7.72
2017-04-27T03:38:08.483Z,7.7
2017-04-27T03:38:34.593Z,7.69
2017-04-27T03:39:00.752Z,7.7
2017-04-27T03:39:26.848Z,7.66
2017-04-27T03:39:52.960Z,7.69
2017-04-27T03:40:19.114Z,7.69
2017-04-27T03:40:45.240Z,7.7
2017-04-27T03:41:11.374Z,7.66
2017-04-27T03:41:37.498Z,7.75
2017-04-27T03:42:03.600Z,7.66
2017-04-27T03:42:29.682Z,7.61
2017-04-27T03:42:55.827Z,7.56
2017-04-27T03:43:21.919Z,7.67
2017-04-27T03:43:48.101Z,7.67
2017-04-27T03:44:14.250Z,7.66
2017-04-27T03:44:40.362Z,7.58
2017-04-27T03:45:06.514Z,7.58
2017-04-27T03:45:32.645Z,7.61
2017-04-27T03:45:58.728Z,7.69
2017-04-27T03:46:24.826Z,7.66
2017-04-27T03:46:50.957Z,7.69
2017-04-27T03:47:17.069Z,7.66
2017-04-27T03:47:43.186Z,7.67
2017-04-27T03:48:09.345Z,7.61
2017-04-27T03:48:35.512Z,7.69
2017-04-27T03:49:01.642Z,7.69
2017-04-27T03:49:27.798Z,7.67
2017-04-27T03:49:53.920Z,7.69
2017-04-27T03:50:20.049Z,7.73
2017-04-27T03:50:46.163Z,7.56
2017-04-27T03:51:12.279Z,7.57
2017-04-27T03:51:38.381Z,7.66
2017-04-27T03:52:04.472Z,7.61
2017-04-27T03:52:30.584Z,7.6
2017-04-27T03:52:56.743Z,7.61
2017-04-27T03:53:22.890Z,7.67
2017-04-27T03:53:49.028Z,7.54
2017-04-27T03:54:15.132Z,7.54
2017-04-27T03:54:41.221Z,7.58
2017-04-27T03:55:07.351Z,7.58
2017-04-27T03:55:33.466Z,7.6
2017-04-27T03:55:59.576Z,7.58
2017-04-27T03:56:25.710Z,7.5
2017-04-27T03:56:51.804Z,7.56
2017-04-27T03:57:17.891Z,7.57
2017-04-27T03:57:44.050Z,7.54
2017-04-27T03:58:10.201Z,7.63
2017-04-27T03:58:36.336Z,7.66
2017-04-27T03:59:02.464Z,7.66
2017-04-27T03:59:28.622Z,7.61
2017-04-27T03:59:54.704Z,7.51
2017-04-27T04:00:20.823Z,7.54
2017-04-27T04:00:46.927Z,7.5
2017-04-27T04:01:13.012Z,7.53
2017-04-27T04:01:39.132Z,7.45
2017-04-27T04:02:05.234Z,7.48
2017-04-27T04:02:31.322Z,7.43
2017-04-27T04:02:57.482Z,7.45
2017-04-27T04:03:23.615Z,7.5
2017-04-27T04:03:49.734Z,7.42
2017-04-27T04:04:15.820Z,7.48
2017-04-27T04:04:41.923Z,7.48
2017-04-27T04:05:08.046Z,7.51
2017-04-27T04:05:34.144Z,7.51
2017-04-27T04:06:00.234Z,7.48
2017-04-27T04:06:26.324Z,7.47
2017-04-27T04:06:52.482Z,7.42
2017-04-27T04:07:18.603Z,7.45
2017-04-27T04:07:44.690Z,7.5
2017-04-27T04:08:10.795Z,7.42
2017-04-27T04:08:36.947Z,7.53
2017-04-27T04:09:03.085Z,7.45
2017-04-27T04:09:29.237Z,7.5
2017-04-27T04:09:55.341Z,7.48
2017-04-27T04:10:21.425Z,7.43
2017-04-27T04:10:47.549Z,7.45
2017-04-27T04:11:13.667Z,7.43
2017-04-27T04:11:39.824Z,7.54
2017-04-27T04:12:05.921Z,7.51
2017-04-27T04:12:32.008Z,7.48
2017-04-27T04:12:58.135Z,7.48
2017-04-27T04:13:24.264Z,7.42
2017-04-27T04:13:50.348Z,7.45
2017-04-27T04:14:16.474Z,7.4
2017-04-27T04:14:42.575Z,7.42
2017-04-27T04:15:08.743Z,7.48
2017-04-27T04:15:34.860Z,7.48
2017-04-27T04:16:00.992Z,7.53
2017-04-27T04:16:27.132Z,7.48
2017-04-27T04:16:53.286Z,7.48
2017-04-27T04:17:19.418Z,7.45
2017-04-27T04:17:45.515Z,7.42
2017-04-27T04:18:11.618Z,7.42
2017-04-27T04:18:37.757Z,7.4
2017-04-27T04:19:03.896Z,7.45
2017-04-27T04:19:30.083Z,7.48
2017-04-27T04:19:56.197Z,7.4
2017-04-27T04:20:22.311Z,7.45
2017-04-27T04:20:48.444Z,7.4
2017-04-27T04:21:14.565Z,7.43
2017-04-27T04:21:40.652Z,7.36
2017-04-27T04:22:06.755Z,7.47
2017-04-27T04:22:32.846Z,7.48
2017-04-27T04:22:59.004Z,7.39
2017-04-27T04:23:25.094Z,7.5
2017-04-27T04:23:51.278Z,7.43
2017-04-27T04:24:17.412Z,7.43
2017-04-27T04:24:43.559Z,7.43
2017-04-27T04:25:09.695Z,7.42
2017-04-27T04:25:35.798Z,7.38
2017-04-27T04:26:01.925Z,7.4
2017-04-27T04:26:28.009Z,7.4
2017-04-27T04:26:54.133Z,7.43
2017-04-27T04:27:20.266Z,7.42
2017-04-27T04:27:46.407Z,7.45
2017-04-27T04:28:12.556Z,7.43
2017-04-27T04:28:38.670Z,7.45
2017-04-27T04:29:04.823Z,7.43
2017-04-27T04:29:30.977Z,7.43
2017-04-27T04:29:57.138Z,7.48
2017-04-27T04:30:23.238Z,7.5
2017-04-27T04:30:49.342Z,7.54
2017-04-27T04:31:15.426Z,7.45
2017-04-27T04:31:41.521Z,7.42
2017-04-27T04:32:07.621Z,7.5
2017-04-27T04:32:33.710Z,7.53
2017-04-27T04:32:59.855Z,7.48
2017-04-27T04:33:25.973Z,7.47
2017-04-27T04:33:52.099Z,7.47
2017-04-27T04:34:18.231Z,7.42
2017-04-27T04:34:44.315Z,7.45
2017-04-27T04:35:10.461Z,7.39
2017-04-27T04:35:36.616Z,7.45
2017-04-27T04:36:02.728Z,7.42
2017-04-27T04:36:28.823Z,7.45
2017-04-27T04:36:54.953Z,7.4
2017-04-27T04:37:21.045Z,7.5
2017-04-27T04:37:47.180Z,7.45
2017-04-27T04:38:13.342Z,7.48
2017-04-27T04:38:39.462Z,7.48
2017-04-27T04:39:05.616Z,7.48
2017-04-27T04:39:31.729Z,7.51
2017-04-27T04:39:57.874Z,7.5
2017-04-27T04:40:23.999Z,7.48
2017-04-27T04:40:50.087Z,7.56
2017-04-27T04:41:16.174Z,7.58
2017-04-27T04:41:42.308Z,7.56
2017-04-27T04:42:08.427Z,7.58
2017-04-27T04:42:34.514Z,7.6
2017-04-27T04:43:00.644Z,7.57
2017-04-27T04:43:26.741Z,7.58
2017-04-27T04:43:52.879Z,7.53
2017-04-27T04:44:19.007Z,7.54
2017-04-27T04:44:45.166Z,7.56
2017-04-27T04:45:11.249Z,7.54
2017-04-27T04:45:37.398Z,7.54
2017-04-27T04:46:03.529Z,7.5
2017-04-27T04:46:29.617Z,7.54
2017-04-27T04:46:55.711Z,7.53
2017-04-27T04:47:21.846Z,7.54
2017-04-27T04:47:47.988Z,7.6
2017-04-27T04:48:14.174Z,7.53
2017-04-27T04:48:40.337Z,7.58
2017-04-27T04:49:06.458Z,7.6
2017-04-27T04:49:32.570Z,7.54
2017-04-27T04:49:58.705Z,7.67
2017-04-27T04:50:24.823Z,7.54
2017-04-27T04:50:50.927Z,7.67
2017-04-27T04:51:17.045Z,7.7
2017-04-27T04:51:43.157Z,7.7
2017-04-27T04:52:09.320Z,7.73
2017-04-27T04:52:35.415Z,7.61
2017-04-27T04:53:01.550Z,7.69
2017-04-27T04:53:27.682Z,7.61
2017-04-27T04:53:53.835Z,7.67
2017-04-27T04:54:19.948Z,7.66
2017-04-27T04:54:46.071Z,7.67
2017-04-27T04:55:12.199Z,7.7
2017-04-27T04:55:38.315Z,7.61
2017-04-27T04:56:04.407Z,7.72
2017-04-27T04:56:30.520Z,7.66
2017-04-27T04:56:56.623Z,7.72
2017-04-27T04:57:22.748Z,7.67
2017-04-27T04:57:48.885Z,7.7
2017-04-27T04:58:15.014Z,7.79
2017-04-27T04:58:41.146Z,7.79
2017-04-27T04:59:07.308Z,7.77
2017-04-27T04:59:33.430Z,7.73
2017-04-27T04:59:59.589Z,7.79
2017-04-27T05:00:25.701Z,7.73
2017-04-27T05:00:51.819Z,7.87
2017-04-27T05:01:17.915Z,7.75
2017-04-27T05:01:44.045Z,7.88
2017-04-27T05:02:10.175Z,7.88
2017-04-27T05:02:36.310Z,7.77
2017-04-27T05:03:02.455Z,7.82
2017-04-27T05:03:28.587Z,7.93
2017-04-27T05:03:54.674Z,7.98
2017-04-27T05:04:20.840Z,7.9
2017-04-27T05:04:46.999Z,7.97
2017-04-27T05:05:13.115Z,7.95
2017-04-27T05:05:39.225Z,7.91
2017-04-27T05:06:05.332Z,7.97
2017-04-27T05:06:31.427Z,7.98
2017-04-27T05:06:57.604Z,8.01
2017-04-27T05:07:23.691Z,8
2017-04-27T05:07:49.808Z,7.97
2017-04-27T05:08:15.942Z,8
2017-04-27T05:08:42.111Z,8.06
2017-04-27T05:09:08.227Z,8.09
2017-04-27T05:09:34.383Z,8.08
2017-04-27T05:10:00.503Z,8.1
2017-04-27T05:10:26.591Z,8.06
2017-04-27T05:10:52.720Z,8.09
2017-04-27T05:11:18.817Z,8.06
2017-04-27T05:11:44.899Z,8
2017-04-27T05:12:10.999Z,8.01
2017-04-27T05:12:37.088Z,7.97
2017-04-27T05:13:03.248Z,8.06
2017-04-27T05:13:29.398Z,8.05
2017-04-27T05:13:55.486Z,8.06
2017-04-27T05:14:21.644Z,8.06
2017-04-27T05:14:47.768Z,8
2017-04-27T05:15:13.879Z,8.03
2017-04-27T05:15:40.004Z,8
2017-04-27T05:16:06.135Z,8.09
2017-04-27T05:16:32.218Z,8.09
2017-04-27T05:16:58.316Z,8.08
2017-04-27T05:17:24.418Z,8.12
2017-04-27T05:17:50.555Z,8.12
2017-04-27T05:18:16.683Z,8.13
2017-04-27T05:18:42.773Z,8.15
2017-04-27T05:19:08.953Z,8.2
2017-04-27T05:19:35.083Z,8.18
2017-04-27T05:20:01.192Z,8.13
2017-04-27T05:20:27.340Z,8.15
2017-04-27T05:20:53.474Z,8.15
2017-04-27T05:21:19.559Z,8.1
2017-04-27T05:21:45.653Z,8.06
2017-04-27T05:22:11.757Z,8.16
2017-04-27T05:22:37.847Z,8.1
2017-04-27T05:23:03.984Z,8.18
2017-04-27T05:23:30.086Z,8.19
2017-04-27T05:23:56.239Z,8.08
2017-04-27T05:24:22.397Z,8.15
2017-04-27T05:24:48.561Z,8.16
2017-04-27T05:25:14.679Z,8.15
2017-04-27T05:25:40.782Z,8.2
2017-04-27T05:26:06.872Z,8.27
2017-04-27T05:26:32.960Z,8.3
2017-04-27T05:26:59.094Z,8.18
2017-04-27T05:27:25.240Z,8.16
2017-04-27T05:27:51.404Z,8.2
2017-04-27T05:28:17.558Z,8.16
2017-04-27T05:28:43.684Z,8.3
2017-04-27T05:29:09.822Z,8.19
2017-04-27T05:29:35.949Z,8.16
2017-04-27T05:30:02.134Z,8.18
2017-04-27T05:30:28.221Z,8.27
2017-04-27T05:30:54.347Z,8.3
2017-04-27T05:31:20.476Z,8.26
2017-04-27T05:31:46.587Z,8.23
2017-04-27T05:32:12.682Z,8.3
2017-04-27T05:32:38.787Z,8.24
2017-04-27T05:33:04.905Z,8.26
2017-04-27T05:33:31.019Z,8.27
2017-04-27T05:33:57.152Z,8.3
2017-04-27T05:34:23.248Z,8.3
2017-04-27T05:34:49.427Z,8.28
2017-04-27T05:35:15.538Z,8.3
2017-04-27T05:35:41.631Z,8.18
2017-04-27T05:36:07.735Z,8.28
2017-04-27T05:36:33.826Z,8.28
2017-04-27T05:36:59.912Z,8.27
2017-04-27T05:37:26.014Z,8.26
2017-04-27T05:37:52.110Z,8.16
2017-04-27T05:38:18.220Z,8.16
2017-04-27T05:38:44.353Z,8.16
2017-04-27T05:39:10.534Z,8.2
2017-04-27T05:39:36.695Z,8.3
2017-04-27T05:40:02.845Z,8.3
2017-04-27T05:40:28.933Z,8.28
2017-04-27T05:40:55.040Z,8.33
2017-04-27T05:41:21.161Z,8.3
2017-04-27T05:41:47.249Z,8.34
2017-04-27T05:42:13.377Z,8.28
2017-04-27T05:42:39.503Z,8.33
2017-04-27T05:43:05.640Z,8.28
2017-04-27T05:43:31.795Z,8.33
2017-04-27T05:43:58.008Z,8.36
2017-04-27T05:44:24.142Z,8.38
2017-04-27T05:44:50.266Z,8.41
2017-04-27T05:45:16.367Z,8.37
2017-04-27T05:45:42.455Z,8.44
2017-04-27T05:46:08.556Z,8.42
2017-04-27T05:46:34.665Z,8.37
2017-04-27T05:47:00.766Z,8.38
2017-04-27T05:47:26.899Z,8.31
2017-04-27T05:47:53.009Z,8.36
2017-04-27T05:48:19.158Z,8.41
2017-04-27T05:48:45.321Z,8.38
2017-04-27T05:49:11.436Z,8.33